createdAt,value
2022-10-11T00:01:42.213Z,91.72
2022-10-11T00:04:10.657Z,91.45
2022-10-11T00:06:39.894Z,92.44
2022-10-11T00:09:07.821Z,91.88
2022-10-11T00:11:35.611Z,91.72
2022-10-11T00:14:03.358Z,91.55
2022-10-11T00:16:31.134Z,90.98
2022-10-11T00:18:58.848Z,90.20
2022-10-11T00:21:26.953Z,90.71
2022-10-11T00:23:56.186Z,91.02
2022-10-11T00:26:23.933Z,91.42
2022-10-11T00:28:53.254Z,90.40
2022-10-11T00:31:21.142Z,91.11
2022-10-11T00:33:49.118Z,90.92
2022-10-11T00:36:18.719Z,91.34
2022-10-11T00:38:46.818Z,90.27
2022-10-11T00:41:17.192Z,91.49
2022-10-11T00:43:45.188Z,93.35
2022-10-11T00:46:29.077Z,92.20
2022-10-11T00:49:02.162Z,92.09
2022-10-11T00:51:38.957Z,92.46
2022-10-11T00:54:08.314Z,93.55
2022-10-11T00:56:39.997Z,92.23
2022-10-11T00:59:12.174Z,93.34
2022-10-11T01:01:40.054Z,92.75
2022-10-11T01:04:07.758Z,94.15
2022-10-11T01:06:35.930Z,93.53
2022-10-11T01:09:04.835Z,93.18
2022-10-11T01:11:32.882Z,93.67
2022-10-11T01:14:18.903Z,93.69
2022-10-11T01:16:54.910Z,92.31
2022-10-11T01:19:48.531Z,93.06
2022-10-11T01:22:35.683Z,92.45
2022-10-11T01:25:21.149Z,92.88
2022-10-11T01:28:02.961Z,91.67
2022-10-11T01:30:33.708Z,92.74
2022-10-11T01:33:11.774Z,93.47
2022-10-11T01:35:44.338Z,92.14
2022-10-11T01:38:18.234Z,91.90
2022-10-11T01:40:50.205Z,93.23
2022-10-11T01:43:19.225Z,93.02
2022-10-11T01:45:51.651Z,94.48
2022-10-11T01:48:19.538Z,94.90
2022-10-11T01:50:49.849Z,94.17
2022-10-11T01:53:34.878Z,95.63
2022-10-11T01:56:11.532Z,94.22
2022-10-11T01:58:54.866Z,92.88
2022-10-11T02:01:32.127Z,93.30
2022-10-11T02:04:05.570Z,92.74
2022-10-11T02:06:35.474Z,92.53
2022-10-11T02:09:14.486Z,95.32
2022-10-11T02:11:42.799Z,94.44
2022-10-11T02:14:12.953Z,94.15
2022-10-11T02:16:45.987Z,93.56
2022-10-11T02:19:18.553Z,95.89
2022-10-11T02:21:50.731Z,94.29
2022-10-11T02:24:24.273Z,94.36
2022-10-11T02:26:56.633Z,95.01
2022-10-11T02:29:27.069Z,95.03
2022-10-11T02:31:57.897Z,94.17
2022-10-11T02:34:29.125Z,94.06
2022-10-11T02:37:05.553Z,96.32
2022-10-11T02:39:41.066Z,95.77
2022-10-11T02:42:14.931Z,95.12
2022-10-11T02:44:45.595Z,96.19
2022-10-11T02:47:15.511Z,94.79
2022-10-11T02:49:43.357Z,94.33
2022-10-11T02:52:11.155Z,95.11
2022-10-11T02:54:38.912Z,94.52
2022-10-11T02:57:06.590Z,94.39
2022-10-11T02:59:34.300Z,94.14
2022-10-11T03:02:02.132Z,94.88
2022-10-11T03:04:31.261Z,94.75
2022-10-11T03:06:58.948Z,94.42
2022-10-11T03:09:26.930Z,93.64
2022-10-11T03:11:54.605Z,93.76
2022-10-11T03:14:22.358Z,94.22
2022-10-11T03:16:51.578Z,94.97
2022-10-11T03:19:19.620Z,95.30
2022-10-11T03:21:48.853Z,95.50
2022-10-11T03:24:16.586Z,94.88
2022-10-11T03:26:44.297Z,94.72
2022-10-11T03:29:12.060Z,95.28
2022-10-11T03:31:39.797Z,95.00
2022-10-11T03:34:07.714Z,94.92
2022-10-11T03:36:35.377Z,95.92
2022-10-11T03:39:05.003Z,94.12
2022-10-11T03:41:32.875Z,95.28
2022-10-11T03:44:00.626Z,94.80
2022-10-11T03:46:28.321Z,94.93
2022-10-11T03:48:56.052Z,94.51
2022-10-11T03:51:23.754Z,94.86
2022-10-11T03:53:51.571Z,93.74
2022-10-11T03:56:20.701Z,94.40
2022-10-11T03:58:48.506Z,95.89
2022-10-11T04:01:16.511Z,97.45
2022-10-11T04:03:44.323Z,97.35
2022-10-11T04:06:11.998Z,95.42
2022-10-11T04:08:39.720Z,95.80
2022-10-11T04:11:07.417Z,95.74
2022-10-11T04:13:37.180Z,95.27
2022-10-11T04:16:05.740Z,95.42
2022-10-11T04:18:33.672Z,95.66
2022-10-11T04:21:01.427Z,96.25
2022-10-11T04:23:29.118Z,95.92
2022-10-11T04:25:57.027Z,94.57
2022-10-11T04:28:24.758Z,95.23
2022-10-11T04:30:53.945Z,94.47
2022-10-11T04:33:21.642Z,94.90
2022-10-11T04:35:49.401Z,93.91
2022-10-11T04:38:17.090Z,95.79
2022-10-11T04:40:44.819Z,95.36
2022-10-11T04:43:12.493Z,95.33
2022-10-11T04:45:40.229Z,95.33
2022-10-11T04:48:09.313Z,95.37
2022-10-11T04:50:37.405Z,94.88
2022-10-11T04:53:05.170Z,95.24
2022-10-11T04:55:32.885Z,95.43
2022-10-11T04:58:02.081Z,95.82
2022-10-11T05:00:29.940Z,96.78
2022-10-11T05:02:57.661Z,96.89
2022-10-11T05:05:26.799Z,96.39
2022-10-11T05:07:54.470Z,96.30
2022-10-11T05:10:22.281Z,96.66
2022-10-11T05:12:50.121Z,96.01
2022-10-11T05:15:17.990Z,94.76
2022-10-11T05:17:45.678Z,95.87
2022-10-11T05:20:13.714Z,96.88
2022-10-11T05:22:42.709Z,96.39
2022-10-11T05:25:11.632Z,95.04
2022-10-11T05:27:39.377Z,94.47
2022-10-11T05:30:08.411Z,94.63
2022-10-11T05:32:36.105Z,95.60
2022-10-11T05:35:03.941Z,96.93
2022-10-11T05:37:31.695Z,97.65
2022-10-11T05:40:00.785Z,98.26
2022-10-11T05:42:28.567Z,98.16
2022-10-11T05:44:56.315Z,96.11
2022-10-11T05:47:23.983Z,95.86
2022-10-11T05:49:51.760Z,95.46
2022-10-11T05:52:21.438Z,95.23
2022-10-11T05:54:49.224Z,95.43
2022-10-11T05:57:18.301Z,94.98
2022-10-11T05:59:46.058Z,96.10
2022-10-11T06:02:14.531Z,95.73
2022-10-11T06:04:42.219Z,96.55
2022-10-11T06:07:09.961Z,94.38
2022-10-11T06:09:37.650Z,95.31
2022-10-11T06:12:05.614Z,95.45
2022-10-11T06:14:34.691Z,93.96
2022-10-11T06:17:02.390Z,94.68
2022-10-11T06:19:30.121Z,94.66
2022-10-11T06:21:57.802Z,95.73
2022-10-11T06:24:25.553Z,95.92
2022-10-11T06:26:53.488Z,96.28
2022-10-11T06:29:21.242Z,95.27
2022-10-11T06:31:50.444Z,95.76
2022-10-11T06:34:18.205Z,97.02
2022-10-11T06:36:45.902Z,96.13
2022-10-11T06:39:13.693Z,95.84
2022-10-11T06:41:41.447Z,93.67
2022-10-11T06:44:14.170Z,93.79
2022-10-11T06:46:42.652Z,92.86
2022-10-11T06:49:11.800Z,94.00
2022-10-11T06:51:39.546Z,93.29
2022-10-11T06:54:07.588Z,93.60
2022-10-11T06:56:35.395Z,94.56
2022-10-11T06:59:03.515Z,94.82
2022-10-11T07:01:32.582Z,95.26
2022-10-11T07:04:01.326Z,94.29
2022-10-11T07:06:31.467Z,93.88
2022-10-11T07:09:01.318Z,93.31
2022-10-11T07:11:29.581Z,94.55
2022-10-11T07:13:59.398Z,95.57
2022-10-11T07:16:28.479Z,95.18
2022-10-11T07:19:00.531Z,95.33
2022-10-11T07:21:31.512Z,94.88
2022-10-11T07:23:59.357Z,93.16
2022-10-11T07:26:27.313Z,93.66
2022-10-11T07:28:55.352Z,94.90
2022-10-11T07:31:25.685Z,92.96
2022-10-11T07:33:54.011Z,93.38
2022-10-11T07:36:23.269Z,92.33
2022-10-11T07:38:52.396Z,92.21
2022-10-11T07:41:20.213Z,92.61
2022-10-11T07:43:49.796Z,91.84
2022-10-11T07:46:18.287Z,91.33
2022-10-11T07:48:45.996Z,89.26
2022-10-11T07:51:16.620Z,88.10
2022-10-11T07:53:46.133Z,88.71
2022-10-11T07:56:16.851Z,88.90
2022-10-11T07:58:45.045Z,88.70
2022-10-11T08:01:14.520Z,88.20
2022-10-11T08:03:42.373Z,88.04
2022-10-11T08:06:12.430Z,88.24
2022-10-11T08:08:40.178Z,88.30
2022-10-11T08:11:08.033Z,87.96
2022-10-11T08:13:37.577Z,86.15
2022-10-11T08:16:12.082Z,87.74
2022-10-11T08:18:39.785Z,89.04
2022-10-11T08:21:09.094Z,87.98
2022-10-11T08:23:36.871Z,86.25
2022-10-11T08:26:05.914Z,86.54
2022-10-11T08:28:34.124Z,87.64
2022-10-11T08:31:03.517Z,88.29
2022-10-11T08:33:32.038Z,87.33
2022-10-11T08:35:59.798Z,86.06
2022-10-11T08:38:27.605Z,86.25
2022-10-11T08:40:57.459Z,86.22
2022-10-11T08:43:33.985Z,86.36
2022-10-11T08:46:05.680Z,86.09
2022-10-11T08:48:36.556Z,86.54
2022-10-11T08:51:10.498Z,85.72
2022-10-11T08:53:45.806Z,85.73
2022-10-11T08:56:15.498Z,86.73
2022-10-11T08:58:48.286Z,84.75
2022-10-11T09:01:21.577Z,85.14
2022-10-11T09:03:50.733Z,86.32
2022-10-11T09:06:27.547Z,84.92
2022-10-11T09:09:20.987Z,84.59
2022-10-11T09:12:04.212Z,83.04
2022-10-11T09:14:59.522Z,83.92
2022-10-11T09:17:47.457Z,83.65
2022-10-11T09:20:34.185Z,83.11
2022-10-11T09:23:06.299Z,82.02
2022-10-11T09:25:38.226Z,82.03
2022-10-11T09:28:18.749Z,81.42
2022-10-11T09:30:51.109Z,80.81
2022-10-11T09:33:25.395Z,80.92
2022-10-11T09:35:58.675Z,80.14
2022-10-11T09:38:36.452Z,80.55
2022-10-11T09:41:17.259Z,80.53
2022-10-11T09:43:50.043Z,79.42
2022-10-11T09:46:24.119Z,78.72
2022-10-11T09:48:56.884Z,79.10
2022-10-11T09:51:28.879Z,79.47
2022-10-11T09:53:59.684Z,79.44
2022-10-11T09:56:30.532Z,78.15
2022-10-11T09:59:10.241Z,78.37
2022-10-11T10:01:38.693Z,77.80
2022-10-11T10:04:12.273Z,79.17
2022-10-11T10:06:43.600Z,79.00
2022-10-11T10:09:26.378Z,77.97
2022-10-11T10:11:56.635Z,77.82
2022-10-11T10:14:36.763Z,78.31
2022-10-11T10:17:10.293Z,78.33
2022-10-11T10:19:48.506Z,76.91
2022-10-11T10:22:20.408Z,77.97
2022-10-11T10:24:49.455Z,77.19
2022-10-11T10:27:22.249Z,76.97
2022-10-11T10:30:14.752Z,76.91
2022-10-11T10:32:50.822Z,76.78
2022-10-11T10:35:30.204Z,75.63
2022-10-11T10:38:07.330Z,75.64
2022-10-11T10:40:41.154Z,76.67
2022-10-11T10:43:17.226Z,75.41
2022-10-11T10:46:20.393Z,74.04
2022-10-11T10:51:53.732Z,77.21
2022-10-11T10:54:36.385Z,76.31
2022-10-11T10:57:11.090Z,76.48
2022-10-11T10:59:55.253Z,77.06
2022-10-11T11:02:40.073Z,77.38
2022-10-11T11:05:21.261Z,78.01
2022-10-11T11:07:56.041Z,76.51
2022-10-11T11:10:30.544Z,76.53
2022-10-11T11:13:09.286Z,76.45
2022-10-11T11:15:43.193Z,76.67
2022-10-11T11:18:27.109Z,76.13
2022-10-11T11:21:15.056Z,75.34
2022-10-11T11:23:54.387Z,76.07
2022-10-11T11:26:29.342Z,73.78
2022-10-11T11:29:07.656Z,75.27
2022-10-11T11:31:58.319Z,75.95
2022-10-11T11:34:30.189Z,75.12
2022-10-11T11:37:01.496Z,76.44
2022-10-11T11:39:34.031Z,76.34
2022-10-11T11:42:06.598Z,74.88
2022-10-11T11:44:37.159Z,74.16
2022-10-11T11:47:10.939Z,75.25
2022-10-11T11:52:27.972Z,74.99
2022-10-11T11:55:06.474Z,73.95
2022-10-11T11:57:50.062Z,74.50
2022-10-11T12:00:21.186Z,75.02
2022-10-11T12:02:54.463Z,73.59
2022-10-11T12:05:23.884Z,74.23
2022-10-11T12:07:56.747Z,72.99
2022-10-11T12:10:33.082Z,73.48
2022-10-11T12:13:17.073Z,71.52
2022-10-11T12:15:59.086Z,73.37
2022-10-11T12:18:27.554Z,71.51
2022-10-11T12:21:05.620Z,71.49
2022-10-11T12:23:47.058Z,70.84
2022-10-11T12:26:34.094Z,70.91
2022-10-11T12:29:28.379Z,72.64
2022-10-11T12:32:31.494Z,70.59
2022-10-11T12:35:32.351Z,72.73
2022-10-11T12:38:14.149Z,69.00
2022-10-11T12:40:43.820Z,69.73
2022-10-11T12:43:57.911Z,69.33
2022-10-11T12:46:41.859Z,70.91
2022-10-11T12:49:29.170Z,69.35
2022-10-11T12:52:01.822Z,66.37
2022-10-11T12:54:54.736Z,67.40
2022-10-11T12:57:46.991Z,67.77
2022-10-11T13:00:27.834Z,67.71
2022-10-11T13:02:56.756Z,67.84
2022-10-11T13:05:27.476Z,68.68
2022-10-11T13:07:58.492Z,69.58
2022-10-11T13:10:31.733Z,68.52
2022-10-11T13:13:04.271Z,66.82
2022-10-11T13:15:33.714Z,67.79
2022-10-11T13:18:01.925Z,67.97
2022-10-11T13:20:32.708Z,68.48
2022-10-11T13:23:00.566Z,69.14
2022-10-11T13:25:30.874Z,68.02
2022-10-11T13:27:59.604Z,66.48
2022-10-11T13:30:30.543Z,69.10
2022-10-11T13:33:00.482Z,67.43
2022-10-11T13:35:32.730Z,67.00
2022-10-11T13:38:01.499Z,65.40
2022-10-11T13:40:31.052Z,66.82
2022-10-11T13:43:01.185Z,66.96
2022-10-11T13:45:31.549Z,67.65
2022-10-11T13:48:00.630Z,66.61
2022-10-11T13:50:32.276Z,67.31
2022-10-11T13:53:23.973Z,65.57
2022-10-11T13:55:54.204Z,66.42
2022-10-11T13:58:29.093Z,65.02
2022-10-11T14:00:59.541Z,66.04
2022-10-11T14:03:38.422Z,67.15
2022-10-11T14:06:06.968Z,66.82
2022-10-11T14:08:39.363Z,67.30
2022-10-11T14:11:08.494Z,66.18
2022-10-11T14:13:38.582Z,67.52
2022-10-11T14:16:09.579Z,66.33
2022-10-11T14:18:48.058Z,66.22
2022-10-11T14:21:25.653Z,67.29
2022-10-11T14:23:55.213Z,66.66
2022-10-11T14:26:24.020Z,66.98
2022-10-11T14:28:55.228Z,65.97
2022-10-11T14:31:23.154Z,66.94
2022-10-11T14:33:52.557Z,66.45
2022-10-11T14:36:21.445Z,66.74
2022-10-11T14:38:49.211Z,66.66
2022-10-11T14:41:17.101Z,66.22
2022-10-11T14:43:45.041Z,65.99
2022-10-11T14:46:22.009Z,67.05
2022-10-11T14:48:55.379Z,66.48
2022-10-11T14:51:30.241Z,66.12
2022-10-11T14:53:58.863Z,66.45
2022-10-11T14:56:26.781Z,65.28
2022-10-11T14:58:54.507Z,66.37
2022-10-11T15:01:22.378Z,67.19
2022-10-11T15:03:50.173Z,67.73
2022-10-11T15:06:21.467Z,67.72
2022-10-11T15:08:50.533Z,68.89
2022-10-11T15:11:22.520Z,68.35
2022-10-11T15:13:50.817Z,68.81
2022-10-11T15:16:20.604Z,69.03
2022-10-11T15:18:51.074Z,69.04
2022-10-11T15:21:20.710Z,68.43
2022-10-11T15:23:50.095Z,69.77
2022-10-11T15:26:20.254Z,68.65
2022-10-11T15:28:49.466Z,68.46
2022-10-11T15:31:18.106Z,67.97
2022-10-11T15:33:45.885Z,67.99
2022-10-11T15:36:15.393Z,68.75
2022-10-11T15:38:44.781Z,69.82
2022-10-11T15:41:15.634Z,69.18
2022-10-11T15:43:44.983Z,68.32
2022-10-11T15:46:15.837Z,68.93
2022-10-11T15:48:43.656Z,69.58
2022-10-11T15:51:11.491Z,69.35
2022-10-11T15:53:39.449Z,68.88
2022-10-11T15:56:10.320Z,69.15
2022-10-11T15:58:40.958Z,69.44
2022-10-11T16:01:12.661Z,70.30
2022-10-11T16:03:40.995Z,69.99
2022-10-11T16:06:09.565Z,69.90
2022-10-11T16:08:37.669Z,69.61
2022-10-11T16:11:06.295Z,69.74
2022-10-11T16:13:34.323Z,70.10
2022-10-11T16:16:04.579Z,69.37
2022-10-11T16:18:35.607Z,70.23
2022-10-11T16:21:07.933Z,70.89
2022-10-11T16:23:36.376Z,70.42
2022-10-11T16:26:06.288Z,70.01
2022-10-11T16:28:34.848Z,70.17
2022-10-11T16:31:09.018Z,70.29
2022-10-11T16:33:45.224Z,70.83
2022-10-11T16:36:31.730Z,70.76
2022-10-11T16:38:59.826Z,71.27
2022-10-11T16:41:27.849Z,71.59
2022-10-11T16:43:56.926Z,71.91
2022-10-11T16:46:26.061Z,70.93
2022-10-11T16:48:56.294Z,70.78
2022-10-11T16:51:25.283Z,71.23
2022-10-11T16:53:53.339Z,71.58
2022-10-11T16:56:22.584Z,71.74
2022-10-11T16:58:51.221Z,72.31
2022-10-11T17:01:21.697Z,72.43
2022-10-11T17:03:52.667Z,72.96
2022-10-11T17:06:20.955Z,73.48
2022-10-11T17:08:49.687Z,73.90
2022-10-11T17:11:17.783Z,73.98
2022-10-11T17:13:45.841Z,74.27
2022-10-11T17:16:13.558Z,75.22
2022-10-11T17:18:41.273Z,75.51
2022-10-11T17:21:13.506Z,75.40
2022-10-11T17:23:41.693Z,76.02
2022-10-11T17:26:12.642Z,76.25
2022-10-11T17:28:40.640Z,76.24
2022-10-11T17:31:09.309Z,76.10
2022-10-11T17:33:37.534Z,76.69
2022-10-11T17:36:17.192Z,77.63
2022-10-11T17:38:44.961Z,77.82
2022-10-11T17:41:12.693Z,77.19
2022-10-11T17:43:40.433Z,76.51
2022-10-11T17:46:09.404Z,76.60
2022-10-11T17:48:39.254Z,77.13
2022-10-11T17:51:09.314Z,76.88
2022-10-11T17:53:38.742Z,78.77
2022-10-11T17:56:08.309Z,77.59
2022-10-11T17:58:36.434Z,78.18
2022-10-11T18:01:05.835Z,78.04
2022-10-11T18:03:34.133Z,78.81
2022-10-11T18:06:04.449Z,79.22
2022-10-11T18:08:35.306Z,79.10
2022-10-11T18:11:11.514Z,79.23
2022-10-11T18:13:42.350Z,80.51
2022-10-11T18:16:11.143Z,79.59
2022-10-11T18:18:39.606Z,80.12
2022-10-11T18:21:07.462Z,79.98
2022-10-11T18:23:36.282Z,79.79
2022-10-11T18:26:11.465Z,80.02
2022-10-11T18:28:40.510Z,80.25
2022-10-11T18:31:12.987Z,81.29
2022-10-11T18:33:41.796Z,80.38
2022-10-11T18:36:13.355Z,80.35
2022-10-11T18:38:43.863Z,80.29
2022-10-11T18:41:15.034Z,79.92
2022-10-11T18:43:42.962Z,80.84
2022-10-11T18:46:12.305Z,80.92
2022-10-11T18:48:41.865Z,81.14
2022-10-11T18:51:12.164Z,80.01
2022-10-11T18:53:40.001Z,80.13
2022-10-11T18:56:10.480Z,80.43
2022-10-11T18:58:40.761Z,80.30
2022-10-11T19:01:10.320Z,80.40
2022-10-11T19:03:38.738Z,80.44
2022-10-11T19:06:09.498Z,80.23
2022-10-11T19:08:37.349Z,80.35
2022-10-11T19:11:08.699Z,79.95
2022-10-11T19:13:37.095Z,79.97
2022-10-11T19:16:09.457Z,80.66
2022-10-11T19:18:43.174Z,80.20
2022-10-11T19:21:13.611Z,80.28
2022-10-11T19:23:43.126Z,81.00
2022-10-11T19:26:14.814Z,81.44
2022-10-11T19:28:43.205Z,81.79
2022-10-11T19:31:16.237Z,82.14
2022-10-11T19:33:44.346Z,82.89
2022-10-11T19:36:14.578Z,82.10
2022-10-11T19:38:46.016Z,82.83
2022-10-11T19:41:14.976Z,82.90
2022-10-11T19:43:43.250Z,82.91
2022-10-11T19:46:20.187Z,82.71
2022-10-11T19:48:52.169Z,83.42
2022-10-11T19:51:21.894Z,83.98
2022-10-11T19:53:50.854Z,84.29
2022-10-11T19:56:20.116Z,84.63
2022-10-11T19:58:47.865Z,85.20
2022-10-11T20:01:18.822Z,85.28
2022-10-11T20:03:49.155Z,87.54
2022-10-11T20:06:18.055Z,86.89
2022-10-11T20:08:48.217Z,88.36
2022-10-11T20:11:21.762Z,88.67
2022-10-11T20:13:50.234Z,88.96
2022-10-11T20:16:20.726Z,87.22
2022-10-11T20:18:48.806Z,89.18
2022-10-11T20:21:19.272Z,90.00
2022-10-11T20:23:48.873Z,91.97
2022-10-11T20:26:17.993Z,90.38
2022-10-11T20:28:46.099Z,91.36
2022-10-11T20:31:15.716Z,91.17
2022-10-11T20:33:45.657Z,90.17
2022-10-11T20:36:15.830Z,90.46
2022-10-11T20:38:45.331Z,91.18
2022-10-11T20:41:15.223Z,92.70
2022-10-11T20:43:43.296Z,92.07
2022-10-11T20:46:13.689Z,91.65
2022-10-11T20:48:42.356Z,92.04
2022-10-11T20:51:11.717Z,92.70
2022-10-11T20:53:39.890Z,91.73
2022-10-11T20:56:10.767Z,92.37
2022-10-11T20:58:38.849Z,92.94
2022-10-11T21:01:10.280Z,92.16
2022-10-11T21:03:37.998Z,91.25
2022-10-11T21:06:06.075Z,92.49
2022-10-11T21:08:36.361Z,93.25
2022-10-11T21:11:05.209Z,94.33
2022-10-11T21:13:32.917Z,94.44
2022-10-11T21:16:04.597Z,93.70
2022-10-11T21:18:32.311Z,93.26
2022-10-11T21:21:05.986Z,91.25
2022-10-11T21:23:35.365Z,91.89
2022-10-11T21:26:04.185Z,92.89
2022-10-11T21:28:32.926Z,94.04
2022-10-11T21:31:04.593Z,93.36
2022-10-11T21:33:32.302Z,93.27
2022-10-11T21:36:00.119Z,92.52
2022-10-11T21:38:27.839Z,91.79
2022-10-11T21:40:56.917Z,94.42
2022-10-11T21:43:24.778Z,96.78
2022-10-11T21:45:52.496Z,96.24
2022-10-11T21:48:20.215Z,97.33
2022-10-11T21:50:53.737Z,96.57
2022-10-11T21:53:21.538Z,95.96
2022-10-11T21:55:49.321Z,97.09
2022-10-11T21:58:18.382Z,96.18
2022-10-11T22:00:47.948Z,96.50
2022-10-11T22:03:15.685Z,96.13
2022-10-11T22:05:45.306Z,97.12
2022-10-11T22:08:13.377Z,96.37
2022-10-11T22:10:43.449Z,96.54
2022-10-11T22:13:11.378Z,96.20
2022-10-11T22:15:40.752Z,96.95
2022-10-11T22:18:08.456Z,97.19
2022-10-11T22:20:36.386Z,98.12
2022-10-11T22:23:04.089Z,99.10
2022-10-11T22:25:31.740Z,100.00
2022-10-11T22:27:59.389Z,97.98
2022-10-11T22:30:27.198Z,99.57
2022-10-11T22:32:56.543Z,99.43
2022-10-11T22:35:24.525Z,97.63
2022-10-11T22:37:53.089Z,97.81
2022-10-11T22:40:21.518Z,97.77
2022-10-11T22:42:49.173Z,99.42
2022-10-11T22:45:17.073Z,98.49
2022-10-11T22:47:44.738Z,96.58
2022-10-11T22:50:13.862Z,98.25
2022-10-11T22:52:41.557Z,97.68
2022-10-11T22:55:10.076Z,96.59
2022-10-11T22:57:38.097Z,96.43
2022-10-11T23:00:07.442Z,95.24
2022-10-11T23:02:35.143Z,95.72
2022-10-11T23:05:02.886Z,94.17
2022-10-11T23:07:31.950Z,96.57
2022-10-11T23:09:59.609Z,97.47
2022-10-11T23:12:27.325Z,96.05
2022-10-11T23:14:55.046Z,95.09
2022-10-11T23:17:22.742Z,94.23
2022-10-11T23:19:50.426Z,93.44
2022-10-11T23:22:18.093Z,95.71
2022-10-11T23:24:47.151Z,96.28
2022-10-11T23:27:14.963Z,95.79
2022-10-11T23:29:42.670Z,96.12
2022-10-11T23:32:11.181Z,96.75
2022-10-11T23:34:39.167Z,96.79
2022-10-11T23:37:06.982Z,94.76
2022-10-11T23:39:34.993Z,96.33
2022-10-11T23:42:04.113Z,98.14
2022-10-11T23:44:31.826Z,98.19
2022-10-11T23:46:59.485Z,96.91
2022-10-11T23:49:27.197Z,96.59
2022-10-11T23:51:54.924Z,96.03
2022-10-11T23:54:22.582Z,96.69
2022-10-11T23:56:50.302Z,97.06
2022-10-11T23:59:19.298Z,96.83
